Time,TemperatureF,DewpointF,PressureIn,WindDirection,WindDirectionDegrees,WindSpeedMPH,WindSpeedGustMPH,Humidity,HourlyPrecipIn,Conditions,Clouds,dailyrainin,SoftwareType,DateUTC
2013-03-05 00:00:00,26.4,24.7,26.37,ENE,76,0.0,6.0,93,0.00,,,-99.99,Weather View 32 v70,2013-03-05 06:00:00,
2013-03-05 00:05:00,26.4,24.7,26.37,East,85,4.0,6.0,93,0.00,,,-99.99,Weather View 32 v70,2013-03-05 06:05:00,
2013-03-05 00:10:00,26.4,24.7,26.37,East,86,2.0,6.0,93,0.00,,,-99.99,Weather View 32 v70,2013-03-05 06:10:00,
2013-03-05 00:19:00,26.6,25.1,26.37,East,93,4.0,6.0,94,0.00,,,-99.99,Weather View 32 v70,2013-03-05 06:19:00,
2013-03-05 00:24:00,26.6,25.1,26.37,ENE,58,0.0,6.0,94,0.00,,,-99.99,Weather View 32 v70,2013-03-05 06:24:00,
2013-03-05 00:34:00,26.6,25.1,26.37,East,92,2.0,6.0,94,0.00,,,-99.99,Weather View 32 v70,2013-03-05 06:34:00,
2013-03-05 00:39:00,26.6,25.1,26.37,ENE,73,3.0,6.0,94,0.00,,,-99.99,Weather View 32 v70,2013-03-05 06:39:00,
2013-03-05 00:49:00,26.6,25.1,26.37,ENE,58,3.0,6.0,94,0.00,,,-99.99,Weather View 32 v70,2013-03-05 06:49:00,
2013-03-05 00:59:00,26.6,25.4,26.37,East,94,3.0,5.0,95,0.00,,,-99.99,Weather View 32 v70,2013-03-05 06:59:00,
2013-03-05 01:04:00,26.6,25.4,26.37,East,92,0.0,5.0,95,0.00,,,-99.99,Weather View 32 v70,2013-03-05 07:04:00,
2013-03-05 01:10:00,26.6,25.4,26.37,East,91,0.0,5.0,95,0.00,,,-99.99,Weather View 32 v70,2013-03-05 07:10:00,
2013-03-05 01:20:00,26.8,25.5,26.37,ENE,65,2.0,5.0,95,0.00,,,-99.99,Weather View 32 v70,2013-03-05 07:20:00,
2013-03-05 01:25:00,26.8,25.5,26.37,North,11,0.0,5.0,95,0.00,,,-99.99,Weather View 32 v70,2013-03-05 07:25:00,
2013-03-05 01:30:00,26.8,25.5,26.37,ENE,61,0.0,5.0,95,0.00,,,-99.99,Weather View 32 v70,2013-03-05 07:30:00,
2013-03-05 01:40:00,27.0,25.7,26.37,NE,48,3.0,4.0,95,0.00,,,-99.99,Weather View 32 v70,2013-03-05 07:40:00,
2013-03-05 01:45:00,27.0,25.7,26.37,NE,48,0.0,4.0,95,0.00,,,-99.99,Weather View 32 v70,2013-03-05 07:45:00,
2013-03-05 01:50:00,27.0,25.7,26.37,NE,50,0.0,4.0,95,0.00,,,-99.99,Weather View 32 v70,2013-03-05 07:50:00,
2013-03-05 02:00:00,27.0,25.7,26.37,ENE,59,0.0,4.0,95,0.00,,,-99.99,Weather View 32 v70,2013-03-05 08:00:00,
2013-03-05 02:05:00,27.0,25.7,26.37,ENE,74,4.0,4.0,95,0.00,,,-99.99,Weather View 32 v70,2013-03-05 08:05:00,
2013-03-05 02:10:00,27.0,25.7,26.37,ENE,57,3.0,4.0,95,0.00,,,-99.99,Weather View 32 v70,2013-03-05 08:10:00,
2013-03-05 02:15:00,27.0,25.7,26.37,NE,56,2.0,4.0,95,0.00,,,-99.99,Weather View 32 v70,2013-03-05 08:15:00,
2013-03-05 02:25:00,27.0,25.7,26.37,NE,36,3.0,4.0,95,0.00,,,-99.99,Weather View 32 v70,2013-03-05 08:25:00,
2013-03-05 02:30:00,27.0,26.0,26.37,NE,55,3.0,5.0,96,0.00,,,-99.99,Weather View 32 v70,2013-03-05 08:30:00,
2013-03-05 02:40:00,27.0,26.0,26.37,NE,45,0.0,5.0,96,0.00,,,-99.99,Weather View 32 v70,2013-03-05 08:40:00,
2013-03-05 02:50:00,27.0,26.0,26.37,NNE,29,2.0,6.0,96,0.00,,,-99.99,Weather View 32 v70,2013-03-05 08:50:00,
2013-03-05 02:55:00,27.0,26.0,26.37,NE,51,3.0,6.0,96,0.00,,,-99.99,Weather View 32 v70,2013-03-05 08:55:00,
2013-03-05 03:00:00,27.0,26.0,26.37,ENE,62,4.0,6.0,96,0.00,,,-99.99,Weather View 32 v70,2013-03-05 09:00:00,
2013-03-05 03:09:00,27.0,26.0,26.37,North,1,0.0,6.0,96,0.00,,,-99.99,Weather View 32 v70,2013-03-05 09:09:00,
2013-03-05 03:19:00,27.1,26.2,26.37,ENE,62,0.0,6.0,96,0.00,,,-99.99,Weather View 32 v70,2013-03-05 09:19:00,
2013-03-05 03:24:00,27.1,26.2,26.37,NE,51,2.0,6.0,96,0.00,,,-99.99,Weather View 32 v70,2013-03-05 09:24:00,
2013-03-05 03:29:00,27.1,26.2,26.37,ENE,72,0.0,6.0,96,0.00,,,-99.99,Weather View 32 v70,2013-03-05 09:29:00,
2013-03-05 03:39:00,27.1,26.2,26.37,NE,36,4.0,6.0,96,0.00,,,-99.99,Weather View 32 v70,2013-03-05 09:39:00,
2013-03-05 03:44:00,27.1,26.2,26.37,East,87,3.0,6.0,96,0.00,,,-99.99,Weather View 32 v70,2013-03-05 09:44:00,
2013-03-05 03:54:00,27.3,26.3,26.37,NE,55,3.0,6.0,96,0.00,,,-99.99,Weather View 32 v70,2013-03-05 09:54:00,
2013-03-05 04:04:00,27.1,26.2,26.37,NNE,24,4.0,6.0,96,0.00,,,-99.99,Weather View 32 v70,2013-03-05 10:04:00,
2013-03-05 04:09:00,27.1,26.2,26.37,East,100,4.0,6.0,96,0.00,,,-99.99,Weather View 32 v70,2013-03-05 10:09:00,
2013-03-05 04:20:00,27.1,26.2,26.37,ESE,108,4.0,8.0,96,0.00,,,-99.99,Weather View 32 v70,2013-03-05 10:20:00,
2013-03-05 04:30:00,27.0,26.0,26.37,East,85,3.0,8.0,96,0.00,,,-99.99,Weather View 32 v70,2013-03-05 10:30:00,
2013-03-05 04:35:00,27.0,26.0,26.37,ESE,106,4.0,8.0,96,0.00,,,-99.99,Weather View 32 v70,2013-03-05 10:35:00,
2013-03-05 04:40:00,27.0,26.0,26.37,NE,52,3.0,8.0,96,0.00,,,-99.99,Weather View 32 v70,2013-03-05 10:40:00,
2013-03-05 04:50:00,27.0,26.0,26.37,ENE,58,2.0,8.0,96,0.00,,,-99.99,Weather View 32 v70,2013-03-05 10:50:00,
2013-03-05 04:55:00,27.0,26.0,26.37,ENE,58,0.0,8.0,96,0.00,,,-99.99,Weather View 32 v70,2013-03-05 10:55:00,
2013-03-05 05:05:00,27.0,26.0,26.37,East,89,3.0,8.0,96,0.00,,,-99.99,Weather View 32 v70,2013-03-05 11:05:00,
2013-03-05 05:10:00,27.0,26.0,26.37,NE,43,4.0,8.0,96,0.00,,,-99.99,Weather View 32 v70,2013-03-05 11:10:00,
2013-03-05 05:15:00,27.0,26.0,26.37,East,100,4.0,8.0,96,0.00,,,-99.99,Weather View 32 v70,2013-03-05 11:15:00,
2013-03-05 05:25:00,26.8,25.8,26.37,NE,47,4.0,6.0,96,0.00,,,-99.99,Weather View 32 v70,2013-03-05 11:25:00,
2013-03-05 05:30:00,26.8,25.8,26.37,ENE,76,3.0,7.0,96,0.00,,,-99.99,Weather View 32 v70,2013-03-05 11:30:00,
2013-03-05 05:40:00,26.6,25.9,26.37,ENE,59,5.0,7.0,97,0.00,,,-99.99,Weather View 32 v70,2013-03-05 11:40:00,
2013-03-05 05:45:00,26.6,25.9,26.37,ENE,73,4.0,7.0,97,0.00,,,-99.99,Weather View 32 v70,2013-03-05 11:45:00,
2013-03-05 05:50:00,26.6,25.9,26.37,ENE,64,3.0,7.0,97,0.00,,,-99.99,Weather View 32 v70,2013-03-05 11:50:00,
2013-03-05 06:00:00,26.6,25.9,26.37,ENE,68,4.0,7.0,97,0.00,,,-99.99,Weather View 32 v70,2013-03-05 12:00:00,
2013-03-05 06:09:00,26.6,25.9,26.37,ENE,76,4.0,7.0,97,0.00,,,-99.99,Weather View 32 v70,2013-03-05 12:09:00,
2013-03-05 06:14:00,26.6,25.9,26.37,ENE,77,4.0,7.0,97,0.00,,,-99.99,Weather View 32 v70,2013-03-05 12:14:00,
2013-03-05 06:19:00,26.6,25.9,26.37,ENE,57,3.0,7.0,97,0.00,,,-99.99,Weather View 32 v70,2013-03-05 12:19:00,
2013-03-05 06:29:00,26.6,25.9,26.37,NE,42,3.0,6.0,97,0.00,,,-99.99,Weather View 32 v70,2013-03-05 12:29:00,
2013-03-05 06:34:00,26.6,25.9,26.37,NNE,21,2.0,6.0,97,0.00,,,-99.99,Weather View 32 v70,2013-03-05 12:34:00,
2013-03-05 06:39:00,26.6,25.9,26.37,North,6,5.0,6.0,97,0.00,,,-99.99,Weather View 32 v70,2013-03-05 12:39:00,
2013-03-05 06:49:00,26.6,25.9,26.37,East,85,5.0,6.0,97,0.00,,,-99.99,Weather View 32 v70,2013-03-05 12:49:00,
2013-03-05 06:54:00,26.4,25.7,26.37,NNW,346,3.0,8.0,97,0.00,,,-99.99,Weather View 32 v70,2013-03-05 12:54:00,
2013-03-05 07:04:00,26.2,25.3,26.37,NW,324,6.0,8.0,96,0.00,,,-99.99,Weather View 32 v70,2013-03-05 13:04:00,
2013-03-05 07:09:00,26.2,25.3,26.37,NNE,14,5.0,8.0,96,0.00,,,-99.99,Weather View 32 v70,2013-03-05 13:09:00,
2013-03-05 07:16:00,26.2,25.3,26.37,East,84,5.0,8.0,96,0.00,,,-99.99,Weather View 32 v70,2013-03-05 13:16:00,
2013-03-05 07:25:00,26.2,25.3,26.37,ENE,73,4.0,9.0,96,0.00,,,-99.99,Weather View 32 v70,2013-03-05 13:25:00,
2013-03-05 07:30:00,26.1,25.1,26.37,NNE,22,5.0,9.0,96,0.00,,,-99.99,Weather View 32 v70,2013-03-05 13:30:00,
2013-03-05 07:35:00,26.1,25.1,26.37,North,357,3.0,9.0,96,0.00,,,-99.99,Weather View 32 v70,2013-03-05 13:35:00,
2013-03-05 07:45:00,26.2,25.3,26.37,NNW,346,4.0,9.0,96,0.00,,,-99.99,Weather View 32 v70,2013-03-05 13:45:00,
2013-03-05 07:50:00,26.2,25.3,26.37,North,349,3.0,9.0,96,0.00,,,-99.99,Weather View 32 v70,2013-03-05 13:50:00,
2013-03-05 07:55:00,26.2,25.3,26.37,North,357,4.0,9.0,96,0.00,,,-99.99,Weather View 32 v70,2013-03-05 13:55:00,
2013-03-05 08:05:00,26.4,25.4,26.37,NNE,14,5.0,9.0,96,0.00,,,-99.99,Weather View 32 v70,2013-03-05 14:05:00,
2013-03-05 08:15:00,26.4,25.4,26.37,NNE,28,8.0,9.0,96,0.00,,,-99.99,Weather View 32 v70,2013-03-05 14:15:00,
2013-03-05 08:20:00,26.4,25.4,26.37,ESE,113,5.0,9.0,96,0.00,,,-99.99,Weather View 32 v70,2013-03-05 14:20:00,
2013-03-05 08:30:00,26.4,25.4,26.37,NNE,22,5.0,9.0,96,0.00,,,-99.99,Weather View 32 v70,2013-03-05 14:30:00,
2013-03-05 08:40:00,26.6,25.6,26.37,NW,320,6.0,9.0,96,0.00,,,-99.99,Weather View 32 v70,2013-03-05 14:40:00,
2013-03-05 08:45:00,26.4,25.4,26.37,North,7,4.0,9.0,96,0.00,,,-99.99,Weather View 32 v70,2013-03-05 14:45:00,
2013-03-05 08:55:00,26.6,25.6,26.37,ENE,74,5.0,9.0,96,0.00,,,-99.99,Weather View 32 v70,2013-03-05 14:55:00,
2013-03-05 09:00:00,26.6,25.6,26.37,North,11,10.0,10.0,96,0.00,,,-99.99,Weather View 32 v70,2013-03-05 15:00:00,
2013-03-05 09:10:00,26.8,25.8,26.37,North,353,7.0,10.0,96,0.00,,,-99.99,Weather View 32 v70,2013-03-05 15:10:00,
2013-03-05 09:15:00,27.0,26.0,26.37,North,4,3.0,10.0,96,0.00,,,-99.99,Weather View 32 v70,2013-03-05 15:15:00,
2013-03-05 09:25:00,26.8,25.8,26.37,North,0,5.0,10.0,96,0.00,,,-99.99,Weather View 32 v70,2013-03-05 15:25:00,
2013-03-05 09:30:00,26.6,25.6,26.37,ENE,65,5.0,10.0,96,0.00,,,-99.99,Weather View 32 v70,2013-03-05 15:30:00,
2013-03-05 09:40:00,26.1,25.1,26.37,NNW,338,4.0,10.0,96,0.00,,,-99.99,Weather View 32 v70,2013-03-05 15:40:00,
2013-03-05 09:45:00,25.9,24.9,26.37,North,2,6.0,10.0,96,0.00,,,-99.99,Weather View 32 v70,2013-03-05 15:45:00,
2013-03-05 09:55:00,25.7,24.7,26.37,NE,50,8.0,10.0,96,0.00,,,-99.99,Weather View 32 v70,2013-03-05 15:55:00,
2013-03-05 10:00:00,25.5,24.5,26.37,NNE,19,5.0,10.0,96,0.00,,,-99.99,Weather View 32 v70,2013-03-05 16:00:00,
2013-03-05 10:10:00,25.3,24.1,26.37,North,357,6.0,11.0,95,0.00,,,-99.99,Weather View 32 v70,2013-03-05 16:10:00,
2013-03-05 10:15:00,25.3,24.1,26.37,North,0,3.0,11.0,95,0.00,,,-99.99,Weather View 32 v70,2013-03-05 16:15:00,
2013-03-05 10:25:00,25.3,24.1,26.37,North,353,8.0,11.0,95,0.00,,,-99.99,Weather View 32 v70,2013-03-05 16:25:00,
2013-03-05 10:30:00,25.3,24.1,26.37,North,0,6.0,11.0,95,0.00,,,-99.99,Weather View 32 v70,2013-03-05 16:30:00,
2013-03-05 10:40:00,25.3,24.1,26.37,North,353,3.0,11.0,95,0.00,,,-99.99,Weather View 32 v70,2013-03-05 16:40:00,
2013-03-05 10:49:00,25.7,24.2,26.37,NNE,21,5.0,11.0,94,0.00,,,-99.99,Weather View 32 v70,2013-03-05 16:49:00,
2013-03-05 10:55:00,25.5,24.0,26.37,North,0,8.0,12.0,94,0.00,,,-99.99,Weather View 32 v70,2013-03-05 16:55:00,
2013-03-05 11:05:00,25.7,24.2,26.37,North,6,11.0,12.0,94,0.00,,,-99.99,Weather View 32 v70,2013-03-05 17:05:00,
2013-03-05 11:14:00,25.3,23.9,26.37,NNW,334,8.0,12.0,94,0.00,,,-99.99,Weather View 32 v70,2013-03-05 17:14:00,
2013-03-05 11:24:00,25.3,23.6,26.37,NE,36,4.0,12.0,93,0.00,,,-99.99,Weather View 32 v70,2013-03-05 17:24:00,
2013-03-05 11:34:00,26.1,24.3,26.37,NNW,341,6.0,12.0,93,0.00,,,-99.99,Weather View 32 v70,2013-03-05 17:34:00,
2013-03-05 11:44:00,25.3,23.3,26.37,North,353,6.0,13.0,92,0.00,,,-99.99,Weather View 32 v70,2013-03-05 17:44:00,
2013-03-05 11:54:00,24.8,22.5,26.37,NNE,30,6.0,13.0,91,0.00,,,-99.99,Weather View 32 v70,2013-03-05 17:54:00,
2013-03-05 11:59:00,25.2,22.9,26.37,North,353,5.0,13.0,91,0.00,,,-99.99,Weather View 32 v70,2013-03-05 17:59:00,
2013-03-05 12:09:00,25.2,22.9,26.37,North,353,5.0,13.0,91,0.00,,,-99.99,Weather View 32 v70,2013-03-05 18:09:00,
2013-03-05 12:16:00,25.5,23.0,26.37,North,0,5.0,13.0,90,0.00,,,-99.99,Weather View 32 v70,2013-03-05 18:16:00,
2013-03-05 12:24:00,25.7,23.2,26.37,North,5,10.0,13.0,90,0.00,,,-99.99,Weather View 32 v70,2013-03-05 18:24:00,
2013-03-05 12:34:00,25.9,23.4,26.37,NNE,28,6.0,13.0,90,0.00,,,-99.99,Weather View 32 v70,2013-03-05 18:34:00,
2013-03-05 12:39:00,25.7,22.9,26.37,North,357,5.0,13.0,89,0.00,,,-99.99,Weather View 32 v70,2013-03-05 18:39:00,
2013-03-05 12:44:00,25.5,22.7,26.37,NNW,346,8.0,13.0,89,0.00,,,-99.99,Weather View 32 v70,2013-03-05 18:44:00,
2013-03-05 12:49:00,25.7,22.9,26.37,NNE,12,6.0,13.0,89,0.00,,,-99.99,Weather View 32 v70,2013-03-05 18:49:00,
2013-03-05 12:54:00,25.9,23.1,26.37,North,357,14.0,14.0,89,0.00,,,-99.99,Weather View 32 v70,2013-03-05 18:54:00,
2013-03-05 13:04:00,25.7,22.6,26.37,North,357,5.0,14.0,88,0.00,,,-99.99,Weather View 32 v70,2013-03-05 19:04:00,
2013-03-05 13:09:00,25.9,22.5,26.37,North,353,9.0,14.0,87,0.00,,,-99.99,Weather View 32 v70,2013-03-05 19:09:00,
2013-03-05 13:14:00,25.7,22.4,26.37,NNE,20,5.0,14.0,87,0.00,,,-99.99,Weather View 32 v70,2013-03-05 19:14:00,
2013-03-05 13:24:00,25.5,21.6,26.37,NE,38,4.0,14.0,85,0.00,,,-99.99,Weather View 32 v70,2013-03-05 19:24:00,
2013-03-05 13:29:00,25.7,21.8,26.37,North,5,6.0,14.0,85,0.00,,,-99.99,Weather View 32 v70,2013-03-05 19:29:00,
2013-03-05 13:34:00,25.5,21.6,26.37,East,88,8.0,14.0,85,0.00,,,-99.99,Weather View 32 v70,2013-03-05 19:34:00,
2013-03-05 13:44:00,26.1,22.2,26.37,NE,48,6.0,14.0,85,0.00,,,-99.99,Weather View 32 v70,2013-03-05 19:44:00,
2013-03-05 13:49:00,26.2,22.3,26.37,NNW,341,8.0,14.0,85,0.00,,,-99.99,Weather View 32 v70,2013-03-05 19:49:00,
2013-03-05 13:59:00,25.9,22.0,26.37,NE,34,11.0,15.0,85,0.00,,,-99.99,Weather View 32 v70,2013-03-05 19:59:00,
2013-03-05 14:09:00,26.1,21.9,26.37,NNW,344,4.0,15.0,84,0.00,,,-99.99,Weather View 32 v70,2013-03-05 20:09:00,
2013-03-05 14:14:00,25.7,21.5,26.37,North,0,9.0,15.0,84,0.00,,,-99.99,Weather View 32 v70,2013-03-05 20:14:00,
2013-03-05 14:20:00,24.8,20.7,26.37,East,96,6.0,15.0,84,0.00,,,-99.99,Weather View 32 v70,2013-03-05 20:20:00,
2013-03-05 14:30:00,24.8,20.4,26.37,NNW,337,8.0,15.0,83,0.00,,,-99.99,Weather View 32 v70,2013-03-05 20:30:00,
2013-03-05 14:35:00,24.6,20.2,26.37,NNE,16,7.0,15.0,83,0.00,,,-99.99,Weather View 32 v70,2013-03-05 20:35:00,
2013-03-05 14:45:00,24.4,20.0,26.37,East,92,6.0,15.0,83,0.00,,,-99.99,Weather View 32 v70,2013-03-05 20:45:00,
2013-03-05 14:50:00,24.6,20.5,26.37,NE,52,6.0,15.0,84,0.00,,,-99.99,Weather View 32 v70,2013-03-05 20:50:00,
2013-03-05 15:00:00,24.8,20.9,26.37,NNE,30,6.0,12.0,85,0.00,,,-99.99,Weather View 32 v70,2013-03-05 21:00:00,
2013-03-05 15:05:00,24.4,20.6,26.37,ESE,104,6.0,12.0,85,0.00,,,-99.99,Weather View 32 v70,2013-03-05 21:05:00,
2013-03-05 15:15:00,24.4,20.3,26.37,NNE,20,10.0,12.0,84,0.00,,,-99.99,Weather View 32 v70,2013-03-05 21:15:00,
2013-03-05 15:25:00,23.7,19.6,26.37,NNW,329,9.0,13.0,84,0.00,,,-99.99,Weather View 32 v70,2013-03-05 21:25:00,
2013-03-05 15:30:00,23.7,19.3,26.37,NE,43,6.0,13.0,83,0.00,,,-99.99,Weather View 32 v70,2013-03-05 21:30:00,
2013-03-05 15:40:00,24.3,20.1,26.37,NNW,348,9.0,13.0,84,0.00,,,-99.99,Weather View 32 v70,2013-03-05 21:40:00,
2013-03-05 15:50:00,23.7,19.3,26.37,NNW,341,8.0,13.0,83,0.00,,,-99.99,Weather View 32 v70,2013-03-05 21:50:00,
2013-03-05 15:55:00,24.1,19.7,26.37,NNW,337,9.0,13.0,83,0.00,,,-99.99,Weather View 32 v70,2013-03-05 21:55:00,
2013-03-05 16:05:00,23.9,19.2,26.37,NNW,333,8.0,15.0,82,0.00,,,-99.99,Weather View 32 v70,2013-03-05 22:05:00,
2013-03-05 16:15:00,23.7,18.7,26.37,North,11,4.0,15.0,81,0.00,,,-99.99,Weather View 32 v70,2013-03-05 22:15:00,
2013-03-05 16:20:00,23.7,18.7,26.37,North,357,10.0,15.0,81,0.00,,,-99.99,Weather View 32 v70,2013-03-05 22:20:00,
2013-03-05 16:30:00,23.5,18.6,26.37,NNE,22,4.0,15.0,81,0.00,,,-99.99,Weather View 32 v70,2013-03-05 22:30:00,
2013-03-05 16:35:00,23.4,18.4,26.37,NNW,346,8.0,15.0,81,0.00,,,-99.99,Weather View 32 v70,2013-03-05 22:35:00,
2013-03-05 16:45:00,22.8,17.6,26.37,East,86,11.0,15.0,80,0.00,,,-99.99,Weather View 32 v70,2013-03-05 22:45:00,
2013-03-05 16:55:00,22.8,17.6,26.37,North,350,4.0,15.0,80,0.00,,,-99.99,Weather View 32 v70,2013-03-05 22:55:00,
2013-03-05 17:05:00,22.8,17.6,26.37,NNE,19,6.0,13.0,80,0.00,,,-99.99,Weather View 32 v70,2013-03-05 23:05:00,
2013-03-05 17:10:00,22.8,17.6,26.37,NNE,33,6.0,13.0,80,0.00,,,-99.99,Weather View 32 v70,2013-03-05 23:10:00,
2013-03-05 17:15:00,22.8,17.9,26.37,North,353,3.0,13.0,81,0.00,,,-99.99,Weather View 32 v70,2013-03-05 23:15:00,
2013-03-05 17:20:00,22.8,17.9,26.37,NE,38,5.0,13.0,81,0.00,,,-99.99,Weather View 32 v70,2013-03-05 23:20:00,
2013-03-05 17:25:00,22.8,17.9,26.37,East,93,3.0,13.0,81,0.00,,,-99.99,Weather View 32 v70,2013-03-05 23:25:00,
2013-03-05 17:30:00,22.8,17.9,26.37,ENE,59,4.0,13.0,81,0.00,,,-99.99,Weather View 32 v70,2013-03-05 23:30:00,
2013-03-05 17:35:00,22.6,17.7,26.37,NNE,22,4.0,13.0,81,0.00,,,-99.99,Weather View 32 v70,2013-03-05 23:35:00,
2013-03-05 17:45:00,22.5,17.5,26.37,NNW,348,8.0,13.0,81,0.00,,,-99.99,Weather View 32 v70,2013-03-05 23:45:00,
2013-03-05 17:55:00,22.6,17.7,26.37,North,6,8.0,13.0,81,0.00,,,-99.99,Weather View 32 v70,2013-03-05 23:55:00,
2013-03-05 18:05:00,22.5,17.5,26.37,North,7,6.0,10.0,81,0.00,,,-99.99,Weather View 32 v70,2013-03-06 00:05:00,
2013-03-05 18:10:00,22.3,17.3,26.37,North,357,3.0,10.0,81,0.00,,,-99.99,Weather View 32 v70,2013-03-06 00:10:00,
2013-03-05 18:21:00,22.3,17.1,26.37,NNW,344,4.0,10.0,80,0.00,,,-99.99,Weather View 32 v70,2013-03-06 00:21:00,
2013-03-05 18:30:00,22.1,17.2,26.37,NNW,341,5.0,9.0,81,0.00,,,-99.99,Weather View 32 v70,2013-03-06 00:30:00,
2013-03-05 18:40:00,21.9,17.0,26.37,NNW,337,4.0,9.0,81,0.00,,,-99.99,Weather View 32 v70,2013-03-06 00:40:00,
2013-03-05 18:45:00,21.9,17.0,26.37,North,3,6.0,9.0,81,0.00,,,-99.99,Weather View 32 v70,2013-03-06 00:45:00,
2013-03-05 18:55:00,21.9,17.0,26.37,North,357,6.0,9.0,81,0.00,,,-99.99,Weather View 32 v70,2013-03-06 00:55:00,
2013-03-05 19:05:00,21.9,17.3,26.37,North,357,3.0,8.0,82,0.00,,,-99.99,Weather View 32 v70,2013-03-06 01:05:00,
2013-03-05 19:15:00,21.9,17.0,26.37,North,357,4.0,8.0,81,0.00,,,-99.99,Weather View 32 v70,2013-03-06 01:15:00,
2013-03-05 19:21:00,21.7,16.8,26.37,North,6,4.0,8.0,81,0.00,,,-99.99,Weather View 32 v70,2013-03-06 01:21:00,
2013-03-05 19:30:00,21.6,16.4,26.37,NW,324,7.0,8.0,80,0.00,,,-99.99,Weather View 32 v70,2013-03-06 01:30:00,
2013-03-05 19:35:00,21.6,16.4,26.37,NNW,337,6.0,8.0,80,0.00,,,-99.99,Weather View 32 v70,2013-03-06 01:35:00,
2013-03-05 19:40:00,21.6,16.4,26.37,North,0,3.0,8.0,80,0.00,,,-99.99,Weather View 32 v70,2013-03-06 01:40:00,
2013-03-05 19:45:00,21.6,16.4,26.37,NW,319,4.0,8.0,80,0.00,,,-99.99,Weather View 32 v70,2013-03-06 01:45:00,
2013-03-05 19:55:00,21.4,16.2,26.37,North,0,5.0,8.0,80,0.00,,,-99.99,Weather View 32 v70,2013-03-06 01:55:00,
2013-03-05 20:05:00,21.4,16.2,26.37,North,357,5.0,8.0,80,0.00,,,-99.99,Weather View 32 v70,2013-03-06 02:05:00,
2013-03-05 20:10:00,21.4,16.2,26.37,North,8,4.0,8.0,80,0.00,,,-99.99,Weather View 32 v70,2013-03-06 02:10:00,
2013-03-05 20:20:00,21.4,16.2,26.37,NNW,346,0.0,8.0,80,0.00,,,-99.99,Weather View 32 v70,2013-03-06 02:20:00,
2013-03-05 20:30:00,21.4,16.2,26.37,North,0,5.0,8.0,80,0.00,,,-99.99,Weather View 32 v70,2013-03-06 02:30:00,
2013-03-05 20:35:00,21.4,16.2,26.37,NNE,32,4.0,8.0,80,0.00,,,-99.99,Weather View 32 v70,2013-03-06 02:35:00,
2013-03-05 20:45:00,21.2,16.3,26.37,North,353,6.0,8.0,81,0.00,,,-99.99,Weather View 32 v70,2013-03-06 02:45:00,
2013-03-05 20:50:00,21.2,16.3,26.37,NNW,338,4.0,8.0,81,0.00,,,-99.99,Weather View 32 v70,2013-03-06 02:50:00,
2013-03-05 21:00:00,21.0,16.1,26.37,NNW,335,6.0,8.0,81,0.00,,,-99.99,Weather View 32 v70,2013-03-06 03:00:00,
2013-03-05 21:10:00,21.0,15.8,26.37,North,357,6.0,8.0,80,0.00,,,-99.99,Weather View 32 v70,2013-03-06 03:10:00,
2013-03-05 21:15:00,21.0,15.8,26.37,NNW,337,5.0,8.0,80,0.00,,,-99.99,Weather View 32 v70,2013-03-06 03:15:00,
2013-03-05 21:23:00,21.0,15.8,26.37,NNE,17,3.0,8.0,80,0.00,,,-99.99,Weather View 32 v70,2013-03-06 03:23:00,
2013-03-05 21:30:00,20.8,15.6,26.37,North,350,5.0,8.0,80,0.00,,,-99.99,Weather View 32 v70,2013-03-06 03:30:00,
2013-03-05 21:40:00,20.8,15.6,26.37,North,2,4.0,8.0,80,0.00,,,-99.99,Weather View 32 v70,2013-03-06 03:40:00,
2013-03-05 21:50:00,20.7,15.5,26.37,NW,324,4.0,8.0,80,0.00,,,-99.99,Weather View 32 v70,2013-03-06 03:50:00,
2013-03-05 22:00:00,20.5,15.3,26.37,North,357,4.0,8.0,80,0.00,,,-99.99,Weather View 32 v70,2013-03-06 04:00:00,
2013-03-05 22:05:00,20.5,15.3,26.37,North,353,6.0,8.0,80,0.00,,,-99.99,Weather View 32 v70,2013-03-06 04:05:00,
2013-03-05 22:15:00,20.5,15.3,26.37,North,357,2.0,8.0,80,0.00,,,-99.99,Weather View 32 v70,2013-03-06 04:15:00,
2013-03-05 22:23:00,20.5,15.3,26.37,North,357,5.0,8.0,80,0.00,,,-99.99,Weather View 32 v70,2013-03-06 04:23:00,
2013-03-05 22:30:00,20.3,15.1,26.37,North,353,4.0,9.0,80,0.00,,,-99.99,Weather View 32 v70,2013-03-06 04:30:00,
2013-03-05 22:40:00,20.3,15.1,26.37,NNE,33,6.0,10.0,80,0.00,,,-99.99,Weather View 32 v70,2013-03-06 04:40:00,
2013-03-05 22:45:00,20.3,15.1,26.37,NNW,341,5.0,10.0,80,0.00,,,-99.99,Weather View 32 v70,2013-03-06 04:45:00,
2013-03-05 22:50:00,20.3,15.1,26.37,North,353,6.0,10.0,80,0.00,,,-99.99,Weather View 32 v70,2013-03-06 04:50:00,
2013-03-05 23:00:00,20.3,15.1,26.37,North,5,4.0,10.0,80,0.00,,,-99.99,Weather View 32 v70,2013-03-06 05:00:00,
2013-03-05 23:05:00,20.3,15.1,26.37,NNW,336,5.0,10.0,80,0.00,,,-99.99,Weather View 32 v70,2013-03-06 05:05:00,
2013-03-05 23:10:00,20.3,15.1,26.37,NE,48,0.0,10.0,80,0.00,,,-99.99,Weather View 32 v70,2013-03-06 05:10:00,
2013-03-05 23:15:00,20.3,15.4,26.37,North,350,4.0,10.0,81,0.00,,,-99.99,Weather View 32 v70,2013-03-06 05:15:00,
2013-03-05 23:23:00,20.3,15.4,26.37,NNW,341,6.0,10.0,81,0.00,,,-99.99,Weather View 32 v70,2013-03-06 05:23:00,
2013-03-05 23:30:00,20.3,15.4,26.37,North,7,3.0,10.0,81,0.00,,,-99.99,Weather View 32 v70,2013-03-06 05:30:00,
2013-03-05 23:40:00,20.1,15.2,26.37,NNW,342,6.0,7.0,81,0.00,,,-99.99,Weather View 32 v70,2013-03-06 05:40:00,
2013-03-05 23:49:00,20.1,15.2,26.37,NNW,330,4.0,6.0,81,0.00,,,-99.99,Weather View 32 v70,2013-03-06 05:49:00,
2013-03-05 23:55:00,20.1,15.2,26.37,West,273,3.0,6.0,81,0.00,,,-99.99,Weather View 32 v70,2013-03-06 05:55:00,